sensor_id;sensor_type;location;lat;lon;timestamp;P1;durP1;ratioP1;P2;durP2;ratioP2
38853;SDS011;24606;51.992;4.198;2023-07-13T00:02:14;6.00;;;1.45;;
38853;SDS011;24606;51.992;4.198;2023-07-13T00:07:18;7.18;;;1.88;;
38853;SDS011;24606;51.992;4.198;2023-07-13T00:12:24;7.53;;;1.67;;
38853;SDS011;24606;51.992;4.198;2023-07-13T00:17:29;5.40;;;1.70;;
38853;SDS011;24606;51.992;4.198;2023-07-13T00:22:32;5.25;;;1.48;;
38853;SDS011;24606;51.992;4.198;2023-07-13T00:27:34;4.78;;;1.25;;
38853;SDS011;24606;51.992;4.198;2023-07-13T00:32:36;6.82;;;1.73;;
38853;SDS011;24606;51.992;4.198;2023-07-13T00:37:41;5.50;;;1.35;;
38853;SDS011;24606;51.992;4.198;2023-07-13T00:42:42;4.13;;;1.15;;
38853;SDS011;24606;51.992;4.198;2023-07-13T00:47:44;6.88;;;1.40;;
38853;SDS011;24606;51.992;4.198;2023-07-13T00:52:53;6.93;;;1.30;;
38853;SDS011;24606;51.992;4.198;2023-07-13T00:57:58;2.08;;;0.75;;
38853;SDS011;24606;51.992;4.198;2023-07-13T01:03:00;4.25;;;0.90;;
38853;SDS011;24606;51.992;4.198;2023-07-13T01:08:05;3.70;;;1.00;;
38853;SDS011;24606;51.992;4.198;2023-07-13T01:13:09;2.38;;;0.88;;
38853;SDS011;24606;51.992;4.198;2023-07-13T01:18:13;1.77;;;0.60;;
38853;SDS011;24606;51.992;4.198;2023-07-13T01:23:18;2.60;;;0.80;;
38853;SDS011;24606;51.992;4.198;2023-07-13T01:28:20;1.95;;;0.60;;
38853;SDS011;24606;51.992;4.198;2023-07-13T01:33:23;1.50;;;0.80;;
38853;SDS011;24606;51.992;4.198;2023-07-13T01:38:27;5.13;;;0.70;;
38853;SDS011;24606;51.992;4.198;2023-07-13T01:43:29;1.90;;;0.77;;
38853;SDS011;24606;51.992;4.198;2023-07-13T01:48:32;2.17;;;0.75;;
38853;SDS011;24606;51.992;4.198;2023-07-13T01:53:36;4.70;;;0.70;;
38853;SDS011;24606;51.992;4.198;2023-07-13T01:58:38;2.92;;;1.25;;
38853;SDS011;24606;51.992;4.198;2023-07-13T02:03:39;4.43;;;0.93;;
38853;SDS011;24606;51.992;4.198;2023-07-13T02:08:43;1.85;;;0.77;;
38853;SDS011;24606;51.992;4.198;2023-07-13T02:13:45;2.03;;;0.90;;
38853;SDS011;24606;51.992;4.198;2023-07-13T02:18:47;2.85;;;1.10;;
38853;SDS011;24606;51.992;4.198;2023-07-13T02:23:53;4.57;;;0.95;;
38853;SDS011;24606;51.992;4.198;2023-07-13T02:28:55;13.45;;;1.80;;
38853;SDS011;24606;51.992;4.198;2023-07-13T02:33:57;7.05;;;1.58;;
38853;SDS011;24606;51.992;4.198;2023-07-13T02:39:01;12.43;;;1.80;;
38853;SDS011;24606;51.992;4.198;2023-07-13T02:44:04;6.18;;;1.40;;
38853;SDS011;24606;51.992;4.198;2023-07-13T02:49:07;2.58;;;0.85;;
38853;SDS011;24606;51.992;4.198;2023-07-13T02:54:11;5.05;;;1.50;;
38853;SDS011;24606;51.992;4.198;2023-07-13T03:15:29;5.25;;;1.30;;
38853;SDS011;24606;51.992;4.198;2023-07-13T03:20:32;7.47;;;1.70;;
38853;SDS011;24606;51.992;4.198;2023-07-13T03:25:35;5.82;;;1.35;;
38853;SDS011;24606;51.992;4.198;2023-07-13T03:30:38;6.82;;;1.48;;
38853;SDS011;24606;51.992;4.198;2023-07-13T03:35:40;5.38;;;0.90;;
38853;SDS011;24606;51.992;4.198;2023-07-13T03:40:42;5.80;;;1.20;;
38853;SDS011;24606;51.992;4.198;2023-07-13T03:45:46;6.05;;;1.30;;
38853;SDS011;24606;51.992;4.198;2023-07-13T03:50:48;7.78;;;1.73;;
38853;SDS011;24606;51.992;4.198;2023-07-13T03:55:50;10.65;;;1.70;;
38853;SDS011;24606;51.992;4.198;2023-07-13T04:00:54;3.83;;;1.35;;
38853;SDS011;24606;51.992;4.198;2023-07-13T04:05:57;2.13;;;1.10;;
38853;SDS011;24606;51.992;4.198;2023-07-13T04:10:59;5.03;;;1.13;;
38853;SDS011;24606;51.992;4.198;2023-07-13T04:16:04;7.32;;;1.65;;
38853;SDS011;24606;51.992;4.198;2023-07-13T04:21:06;3.90;;;1.38;;
38853;SDS011;24606;51.992;4.198;2023-07-13T04:26:08;9.90;;;1.70;;
38853;SDS011;24606;51.992;4.198;2023-07-13T04:31:11;11.02;;;2.28;;
38853;SDS011;24606;51.992;4.198;2023-07-13T04:36:14;6.68;;;1.60;;
38853;SDS011;24606;51.992;4.198;2023-07-13T04:41:16;3.33;;;1.25;;
38853;SDS011;24606;51.992;4.198;2023-07-13T04:46:19;8.18;;;1.52;;
38853;SDS011;24606;51.992;4.198;2023-07-13T04:51:21;5.35;;;1.48;;
38853;SDS011;24606;51.992;4.198;2023-07-13T04:56:23;5.25;;;2.05;;
38853;SDS011;24606;51.992;4.198;2023-07-13T05:01:26;2.72;;;0.95;;
38853;SDS011;24606;51.992;4.198;2023-07-13T05:06:28;5.22;;;1.30;;
38853;SDS011;24606;51.992;4.198;2023-07-13T05:11:30;4.82;;;1.20;;
38853;SDS011;24606;51.992;4.198;2023-07-13T05:16:34;3.55;;;1.20;;
38853;SDS011;24606;51.992;4.198;2023-07-13T05:21:36;5.00;;;1.25;;
38853;SDS011;24606;51.992;4.198;2023-07-13T05:26:38;6.57;;;1.58;;
38853;SDS011;24606;51.992;4.198;2023-07-13T05:31:41;4.30;;;1.15;;
38853;SDS011;24606;51.992;4.198;2023-07-13T05:36:43;8.02;;;1.58;;
38853;SDS011;24606;51.992;4.198;2023-07-13T05:41:45;7.85;;;1.65;;
38853;SDS011;24606;51.992;4.198;2023-07-13T05:46:48;5.40;;;1.20;;
38853;SDS011;24606;51.992;4.198;2023-07-13T05:51:50;6.32;;;1.50;;
38853;SDS011;24606;51.992;4.198;2023-07-13T05:56:52;3.03;;;1.17;;
38853;SDS011;24606;51.992;4.198;2023-07-13T06:01:55;5.93;;;1.52;;
38853;SDS011;24606;51.992;4.198;2023-07-13T06:06:57;5.38;;;1.27;;
38853;SDS011;24606;51.992;4.198;2023-07-13T06:12:00;5.53;;;1.50;;
38853;SDS011;24606;51.992;4.198;2023-07-13T06:17:03;6.07;;;1.75;;
38853;SDS011;24606;51.992;4.198;2023-07-13T06:22:06;3.58;;;1.42;;
38853;SDS011;24606;51.992;4.198;2023-07-13T06:27:08;4.55;;;1.20;;
38853;SDS011;24606;51.992;4.198;2023-07-13T06:32:11;10.15;;;1.92;;
38853;SDS011;24606;51.992;4.198;2023-07-13T06:37:13;4.88;;;2.05;;
38853;SDS011;24606;51.992;4.198;2023-07-13T06:42:15;2.85;;;1.20;;
38853;SDS011;24606;51.992;4.198;2023-07-13T06:47:19;7.32;;;1.83;;
38853;SDS011;24606;51.992;4.198;2023-07-13T06:52:21;5.22;;;1.92;;
38853;SDS011;24606;51.992;4.198;2023-07-13T06:57:23;7.03;;;1.20;;
38853;SDS011;24606;51.992;4.198;2023-07-13T07:02:26;5.88;;;1.50;;
38853;SDS011;24606;51.992;4.198;2023-07-13T07:07:28;6.20;;;1.23;;
38853;SDS011;24606;51.992;4.198;2023-07-13T07:12:30;5.68;;;1.75;;
38853;SDS011;24606;51.992;4.198;2023-07-13T07:17:33;6.28;;;1.38;;
38853;SDS011;24606;51.992;4.198;2023-07-13T07:22:35;11.27;;;1.55;;
38853;SDS011;24606;51.992;4.198;2023-07-13T07:27:37;6.65;;;1.63;;
38853;SDS011;24606;51.992;4.198;2023-07-13T07:32:41;5.00;;;1.92;;
38853;SDS011;24606;51.992;4.198;2023-07-13T07:37:43;6.78;;;1.73;;
38853;SDS011;24606;51.992;4.198;2023-07-13T07:42:45;8.68;;;1.65;;
38853;SDS011;24606;51.992;4.198;2023-07-13T07:47:48;9.38;;;1.90;;
38853;SDS011;24606;51.992;4.198;2023-07-13T07:52:50;4.20;;;1.70;;
38853;SDS011;24606;51.992;4.198;2023-07-13T07:57:52;5.47;;;1.50;;
38853;SDS011;24606;51.992;4.198;2023-07-13T08:02:55;6.53;;;2.20;;
38853;SDS011;24606;51.992;4.198;2023-07-13T08:07:57;6.82;;;1.92;;
38853;SDS011;24606;51.992;4.198;2023-07-13T08:18:02;8.65;;;1.90;;
38853;SDS011;24606;51.992;4.198;2023-07-13T08:23:04;8.73;;;1.70;;
38853;SDS011;24606;51.992;4.198;2023-07-13T08:28:06;7.88;;;1.77;;
38853;SDS011;24606;51.992;4.198;2023-07-13T08:33:09;5.55;;;1.83;;
38853;SDS011;24606;51.992;4.198;2023-07-13T08:38:11;8.40;;;1.80;;
38853;SDS011;24606;51.992;4.198;2023-07-13T08:43:15;12.95;;;2.42;;
38853;SDS011;24606;51.992;4.198;2023-07-13T08:48:21;7.13;;;1.50;;
38853;SDS011;24606;51.992;4.198;2023-07-13T08:53:29;6.75;;;2.08;;
38853;SDS011;24606;51.992;4.198;2023-07-13T08:58:37;3.97;;;1.63;;
38853;SDS011;24606;51.992;4.198;2023-07-13T09:03:45;7.13;;;1.83;;
38853;SDS011;24606;51.992;4.198;2023-07-13T09:08:57;6.45;;;2.08;;
38853;SDS011;24606;51.992;4.198;2023-07-13T09:14:05;7.00;;;2.38;;
38853;SDS011;24606;51.992;4.198;2023-07-13T09:19:19;7.95;;;2.13;;
38853;SDS011;24606;51.992;4.198;2023-07-13T09:24:30;6.80;;;1.80;;
38853;SDS011;24606;51.992;4.198;2023-07-13T09:29:37;9.68;;;2.17;;
38853;SDS011;24606;51.992;4.198;2023-07-13T09:34:51;9.70;;;2.33;;
38853;SDS011;24606;51.992;4.198;2023-07-13T09:39:54;8.13;;;1.90;;
38853;SDS011;24606;51.992;4.198;2023-07-13T09:44:59;6.35;;;1.65;;
38853;SDS011;24606;51.992;4.198;2023-07-13T09:50:06;5.72;;;1.60;;
38853;SDS011;24606;51.992;4.198;2023-07-13T09:55:25;6.47;;;2.22;;
38853;SDS011;24606;51.992;4.198;2023-07-13T10:00:29;7.15;;;2.22;;
38853;SDS011;24606;51.992;4.198;2023-07-13T10:05:40;6.38;;;2.22;;
38853;SDS011;24606;51.992;4.198;2023-07-13T10:10:43;9.88;;;1.92;;
38853;SDS011;24606;51.992;4.198;2023-07-13T10:15:46;5.10;;;1.40;;
38853;SDS011;24606;51.992;4.198;2023-07-13T10:20:51;5.93;;;1.85;;
38853;SDS011;24606;51.992;4.198;2023-07-13T10:26:00;6.63;;;1.58;;
38853;SDS011;24606;51.992;4.198;2023-07-13T10:31:03;7.65;;;2.10;;
38853;SDS011;24606;51.992;4.198;2023-07-13T10:36:14;4.40;;;1.90;;
38853;SDS011;24606;51.992;4.198;2023-07-13T10:41:21;6.20;;;2.00;;
38853;SDS011;24606;51.992;4.198;2023-07-13T10:46:27;5.53;;;1.70;;
38853;SDS011;24606;51.992;4.198;2023-07-13T10:51:31;7.32;;;1.90;;
38853;SDS011;24606;51.992;4.198;2023-07-13T10:56:34;5.22;;;2.20;;
38853;SDS011;24606;51.992;4.198;2023-07-13T11:01:39;6.05;;;1.80;;
38853;SDS011;24606;51.992;4.198;2023-07-13T11:06:50;4.47;;;1.80;;
38853;SDS011;24606;51.992;4.198;2023-07-13T11:11:55;6.60;;;2.20;;
38853;SDS011;24606;51.992;4.198;2023-07-13T11:16:59;7.85;;;2.28;;
38853;SDS011;24606;51.992;4.198;2023-07-13T11:22:51;7.95;;;2.40;;
38853;SDS011;24606;51.992;4.198;2023-07-13T11:28:05;6.47;;;2.13;;
38853;SDS011;24606;51.992;4.198;2023-07-13T11:33:16;3.05;;;1.92;;
38853;SDS011;24606;51.992;4.198;2023-07-13T11:38:22;5.40;;;2.20;;
38853;SDS011;24606;51.992;4.198;2023-07-13T11:43:28;4.38;;;1.50;;
38853;SDS011;24606;51.992;4.198;2023-07-13T11:48:33;3.70;;;1.60;;
38853;SDS011;24606;51.992;4.198;2023-07-13T11:53:39;4.45;;;2.38;;
38853;SDS011;24606;51.992;4.198;2023-07-13T11:58:50;4.93;;;1.50;;
38853;SDS011;24606;51.992;4.198;2023-07-13T12:03:53;10.02;;;1.60;;
38853;SDS011;24606;51.992;4.198;2023-07-13T12:08:57;6.05;;;1.80;;
38853;SDS011;24606;51.992;4.198;2023-07-13T12:14:00;5.43;;;1.77;;
38853;SDS011;24606;51.992;4.198;2023-07-13T12:19:02;4.35;;;1.60;;
38853;SDS011;24606;51.992;4.198;2023-07-13T12:24:12;4.70;;;1.75;;
38853;SDS011;24606;51.992;4.198;2023-07-13T12:29:16;4.22;;;1.70;;
38853;SDS011;24606;51.992;4.198;2023-07-13T12:34:19;4.45;;;1.48;;
38853;SDS011;24606;51.992;4.198;2023-07-13T12:39:24;10.52;;;1.77;;
38853;SDS011;24606;51.992;4.198;2023-07-13T12:44:33;4.55;;;1.40;;
38853;SDS011;24606;51.992;4.198;2023-07-13T12:49:39;5.90;;;1.75;;
38853;SDS011;24606;51.992;4.198;2023-07-13T12:54:53;6.22;;;1.48;;
38853;SDS011;24606;51.992;4.198;2023-07-13T12:59:58;2.72;;;1.20;;
38853;SDS011;24606;51.992;4.198;2023-07-13T13:05:00;3.60;;;1.30;;
38853;SDS011;24606;51.992;4.198;2023-07-13T13:10:12;4.45;;;1.60;;
38853;SDS011;24606;51.992;4.198;2023-07-13T13:15:14;3.33;;;1.48;;
38853;SDS011;24606;51.992;4.198;2023-07-13T13:20:18;4.28;;;1.00;;
38853;SDS011;24606;51.992;4.198;2023-07-13T13:25:23;8.57;;;1.88;;
38853;SDS011;24606;51.992;4.198;2023-07-13T13:30:26;2.55;;;1.33;;
38853;SDS011;24606;51.992;4.198;2023-07-13T13:35:28;4.47;;;1.30;;
38853;SDS011;24606;51.992;4.198;2023-07-13T13:40:31;7.65;;;1.40;;
38853;SDS011;24606;51.992;4.198;2023-07-13T13:45:34;5.10;;;1.20;;
38853;SDS011;24606;51.992;4.198;2023-07-13T13:50:36;4.47;;;1.48;;
38853;SDS011;24606;51.992;4.198;2023-07-13T13:55:39;4.45;;;1.38;;
38853;SDS011;24606;51.992;4.198;2023-07-13T14:00:43;4.82;;;1.20;;
38853;SDS011;24606;51.992;4.198;2023-07-13T14:05:45;4.03;;;1.60;;
38853;SDS011;24606;51.992;4.198;2023-07-13T14:10:50;6.75;;;2.03;;
38853;SDS011;24606;51.992;4.198;2023-07-13T14:15:54;3.85;;;1.73;;
38853;SDS011;24606;51.992;4.198;2023-07-13T14:20:56;5.30;;;1.40;;
38853;SDS011;24606;51.992;4.198;2023-07-13T14:25:59;4.50;;;1.05;;
38853;SDS011;24606;51.992;4.198;2023-07-13T14:31:01;6.35;;;1.70;;
38853;SDS011;24606;51.992;4.198;2023-07-13T14:36:05;5.60;;;1.50;;
38853;SDS011;24606;51.992;4.198;2023-07-13T14:41:24;1.83;;;1.00;;
38853;SDS011;24606;51.992;4.198;2023-07-13T14:46:27;6.32;;;1.23;;
38853;SDS011;24606;51.992;4.198;2023-07-13T14:51:31;4.07;;;1.30;;
38853;SDS011;24606;51.992;4.198;2023-07-13T14:56:35;5.20;;;1.30;;
38853;SDS011;24606;51.992;4.198;2023-07-13T15:01:37;3.85;;;1.30;;
38853;SDS011;24606;51.992;4.198;2023-07-13T15:06:54;4.25;;;1.23;;
38853;SDS011;24606;51.992;4.198;2023-07-13T15:11:58;7.72;;;1.33;;
38853;SDS011;24606;51.992;4.198;2023-07-13T15:17:00;7.05;;;1.13;;
38853;SDS011;24606;51.992;4.198;2023-07-13T15:22:02;9.27;;;1.27;;
38853;SDS011;24606;51.992;4.198;2023-07-13T15:27:09;6.97;;;1.92;;
38853;SDS011;24606;51.992;4.198;2023-07-13T15:32:12;3.78;;;1.30;;
38853;SDS011;24606;51.992;4.198;2023-07-13T15:37:15;4.53;;;1.10;;
38853;SDS011;24606;51.992;4.198;2023-07-13T15:42:20;5.80;;;1.33;;
38853;SDS011;24606;51.992;4.198;2023-07-13T15:47:22;3.70;;;1.10;;
38853;SDS011;24606;51.992;4.198;2023-07-13T15:52:24;5.43;;;1.27;;
38853;SDS011;24606;51.992;4.198;2023-07-13T15:57:27;7.38;;;1.42;;
38853;SDS011;24606;51.992;4.198;2023-07-13T16:02:29;2.10;;;0.88;;
38853;SDS011;24606;51.992;4.198;2023-07-13T16:07:31;4.85;;;1.40;;
38853;SDS011;24606;51.992;4.198;2023-07-13T16:12:36;3.55;;;1.48;;
38853;SDS011;24606;51.992;4.198;2023-07-13T16:17:38;9.55;;;1.38;;
38853;SDS011;24606;51.992;4.198;2023-07-13T16:22:41;5.05;;;1.20;;
38853;SDS011;24606;51.992;4.198;2023-07-13T16:27:48;4.95;;;1.20;;
38853;SDS011;24606;51.992;4.198;2023-07-13T16:32:51;3.30;;;1.30;;
38853;SDS011;24606;51.992;4.198;2023-07-13T16:37:53;5.65;;;1.40;;
38853;SDS011;24606;51.992;4.198;2023-07-13T16:42:58;3.58;;;1.13;;
38853;SDS011;24606;51.992;4.198;2023-07-13T16:48:05;2.85;;;1.50;;
38853;SDS011;24606;51.992;4.198;2023-07-13T16:53:16;4.20;;;1.20;;
38853;SDS011;24606;51.992;4.198;2023-07-13T16:58:23;2.50;;;1.15;;
38853;SDS011;24606;51.992;4.198;2023-07-13T17:03:26;3.92;;;1.20;;
38853;SDS011;24606;51.992;4.198;2023-07-13T17:08:29;3.25;;;1.05;;
38853;SDS011;24606;51.992;4.198;2023-07-13T17:13:34;8.10;;;1.63;;
38853;SDS011;24606;51.992;4.198;2023-07-13T17:18:36;8.30;;;1.42;;
38853;SDS011;24606;51.992;4.198;2023-07-13T17:23:38;7.57;;;1.08;;
38853;SDS011;24606;51.992;4.198;2023-07-13T17:28:42;2.83;;;0.85;;
38853;SDS011;24606;51.992;4.198;2023-07-13T17:33:44;2.72;;;1.10;;
38853;SDS011;24606;51.992;4.198;2023-07-13T17:38:48;5.97;;;1.10;;
38853;SDS011;24606;51.992;4.198;2023-07-13T17:43:57;3.20;;;0.98;;
38853;SDS011;24606;51.992;4.198;2023-07-13T17:48:59;3.70;;;1.10;;
38853;SDS011;24606;51.992;4.198;2023-07-13T17:54:01;3.08;;;0.90;;
38853;SDS011;24606;51.992;4.198;2023-07-13T17:59:05;3.70;;;1.10;;
38853;SDS011;24606;51.992;4.198;2023-07-13T18:04:07;13.25;;;1.38;;
38853;SDS011;24606;51.992;4.198;2023-07-13T18:09:13;9.85;;;1.33;;
38853;SDS011;24606;51.992;4.198;2023-07-13T18:14:18;6.10;;;1.60;;
38853;SDS011;24606;51.992;4.198;2023-07-13T18:19:24;12.63;;;1.00;;
38853;SDS011;24606;51.992;4.198;2023-07-13T18:24:33;5.80;;;0.77;;
38853;SDS011;24606;51.992;4.198;2023-07-13T18:29:36;5.60;;;1.20;;
38853;SDS011;24606;51.992;4.198;2023-07-13T18:34:39;5.30;;;0.90;;
38853;SDS011;24606;51.992;4.198;2023-07-13T18:39:43;2.60;;;1.00;;
38853;SDS011;24606;51.992;4.198;2023-07-13T18:44:46;1.83;;;0.88;;
38853;SDS011;24606;51.992;4.198;2023-07-13T18:49:48;2.58;;;1.02;;
38853;SDS011;24606;51.992;4.198;2023-07-13T18:54:52;2.50;;;0.50;;
38853;SDS011;24606;51.992;4.198;2023-07-13T18:59:55;6.60;;;1.10;;
38853;SDS011;24606;51.992;4.198;2023-07-13T19:04:58;3.33;;;1.00;;
38853;SDS011;24606;51.992;4.198;2023-07-13T19:10:00;1.90;;;0.77;;
38853;SDS011;24606;51.992;4.198;2023-07-13T19:15:08;2.60;;;1.17;;
38853;SDS011;24606;51.992;4.198;2023-07-13T19:20:19;5.70;;;1.15;;
38853;SDS011;24606;51.992;4.198;2023-07-13T19:25:23;3.47;;;0.82;;
38853;SDS011;24606;51.992;4.198;2023-07-13T19:30:27;3.75;;;0.85;;
38853;SDS011;24606;51.992;4.198;2023-07-13T19:35:30;6.60;;;1.30;;
38853;SDS011;24606;51.992;4.198;2023-07-13T19:40:33;9.05;;;1.23;;
38853;SDS011;24606;51.992;4.198;2023-07-13T19:45:37;5.47;;;1.40;;
38853;SDS011;24606;51.992;4.198;2023-07-13T19:50:39;2.83;;;1.10;;
38853;SDS011;24606;51.992;4.198;2023-07-13T19:55:43;4.15;;;0.90;;
38853;SDS011;24606;51.992;4.198;2023-07-13T20:00:46;3.25;;;0.95;;
38853;SDS011;24606;51.992;4.198;2023-07-13T20:05:48;7.05;;;1.50;;
38853;SDS011;24606;51.992;4.198;2023-07-13T20:10:50;7.15;;;1.58;;
38853;SDS011;24606;51.992;4.198;2023-07-13T20:15:54;4.82;;;1.30;;
38853;SDS011;24606;51.992;4.198;2023-07-13T20:20:57;8.38;;;1.10;;
38853;SDS011;24606;51.992;4.198;2023-07-13T20:25:59;2.42;;;0.85;;
38853;SDS011;24606;51.992;4.198;2023-07-13T20:31:04;3.47;;;1.30;;
38853;SDS011;24606;51.992;4.198;2023-07-13T20:36:11;3.28;;;1.27;;
38853;SDS011;24606;51.992;4.198;2023-07-13T20:41:13;3.40;;;1.10;;
38853;SDS011;24606;51.992;4.198;2023-07-13T20:46:19;5.53;;;1.75;;
38853;SDS011;24606;51.992;4.198;2023-07-13T20:51:21;2.00;;;0.85;;
38853;SDS011;24606;51.992;4.198;2023-07-13T20:56:24;2.80;;;1.00;;
38853;SDS011;24606;51.992;4.198;2023-07-13T21:01:31;4.82;;;1.27;;
38853;SDS011;24606;51.992;4.198;2023-07-13T21:06:34;2.72;;;1.10;;
38853;SDS011;24606;51.992;4.198;2023-07-13T21:11:37;2.45;;;0.95;;
38853;SDS011;24606;51.992;4.198;2023-07-13T21:16:41;3.65;;;1.30;;
38853;SDS011;24606;51.992;4.198;2023-07-13T21:21:43;5.70;;;1.83;;
38853;SDS011;24606;51.992;4.198;2023-07-13T21:26:45;6.20;;;1.25;;
38853;SDS011;24606;51.992;4.198;2023-07-13T21:31:48;3.17;;;1.30;;
38853;SDS011;24606;51.992;4.198;2023-07-13T21:36:51;5.93;;;1.42;;
38853;SDS011;24606;51.992;4.198;2023-07-13T21:41:58;7.32;;;1.92;;
38853;SDS011;24606;51.992;4.198;2023-07-13T21:47:02;6.68;;;1.60;;
38853;SDS011;24606;51.992;4.198;2023-07-13T21:52:09;4.47;;;1.58;;
38853;SDS011;24606;51.992;4.198;2023-07-13T21:57:16;4.35;;;1.73;;
38853;SDS011;24606;51.992;4.198;2023-07-13T22:02:19;2.67;;;1.40;;
38853;SDS011;24606;51.992;4.198;2023-07-13T22:07:22;3.25;;;1.60;;
38853;SDS011;24606;51.992;4.198;2023-07-13T22:12:23;3.08;;;1.48;;
38853;SDS011;24606;51.992;4.198;2023-07-13T22:17:27;2.42;;;1.20;;
38853;SDS011;24606;51.992;4.198;2023-07-13T22:22:29;4.18;;;1.75;;
38853;SDS011;24606;51.992;4.198;2023-07-13T22:27:31;4.72;;;1.35;;
38853;SDS011;24606;51.992;4.198;2023-07-13T22:32:34;3.42;;;1.40;;
38853;SDS011;24606;51.992;4.198;2023-07-13T22:37:36;4.70;;;1.50;;
38853;SDS011;24606;51.992;4.198;2023-07-13T22:42:38;2.97;;;1.40;;
38853;SDS011;24606;51.992;4.198;2023-07-13T22:47:42;3.55;;;1.40;;
38853;SDS011;24606;51.992;4.198;2023-07-13T22:52:44;3.10;;;1.52;;
38853;SDS011;24606;51.992;4.198;2023-07-13T22:57:47;5.63;;;1.85;;
38853;SDS011;24606;51.992;4.198;2023-07-13T23:02:51;4.32;;;1.70;;
38853;SDS011;24606;51.992;4.198;2023-07-13T23:07:53;3.90;;;1.50;;
38853;SDS011;24606;51.992;4.198;2023-07-13T23:12:55;5.85;;;1.70;;
38853;SDS011;24606;51.992;4.198;2023-07-13T23:18:04;3.30;;;1.65;;
38853;SDS011;24606;51.992;4.198;2023-07-13T23:23:08;5.38;;;1.38;;
38853;SDS011;24606;51.992;4.198;2023-07-13T23:28:12;4.72;;;1.50;;
38853;SDS011;24606;51.992;4.198;2023-07-13T23:33:18;4.47;;;1.85;;
38853;SDS011;24606;51.992;4.198;2023-07-13T23:38:22;2.42;;;1.52;;
38853;SDS011;24606;51.992;4.198;2023-07-13T23:43:24;1.77;;;1.10;;
38853;SDS011;24606;51.992;4.198;2023-07-13T23:48:28;2.80;;;1.33;;
38853;SDS011;24606;51.992;4.198;2023-07-13T23:53:30;2.10;;;0.90;;
38853;SDS011;24606;51.992;4.198;2023-07-13T23:58:32;4.35;;;1.40;;
